sensor_id;sensor_type;location;lat;lon;timestamp;P1;durP1;ratioP1;P2;durP2;ratioP2
51732;SDS011;39139;53.144;6.244;2023-03-31T00:01:32;35.05;;;6.50;;
51732;SDS011;39139;53.144;6.244;2023-03-31T00:03:58;33.35;;;5.95;;
51732;SDS011;39139;53.144;6.244;2023-03-31T00:06:29;37.47;;;6.68;;
51732;SDS011;39139;53.144;6.244;2023-03-31T00:09:05;42.53;;;7.35;;
51732;SDS011;39139;53.144;6.244;2023-03-31T00:11:32;42.17;;;9.20;;
51732;SDS011;39139;53.144;6.244;2023-03-31T00:13:58;38.97;;;6.72;;
51732;SDS011;39139;53.144;6.244;2023-03-31T00:16:24;35.63;;;6.70;;
51732;SDS011;39139;53.144;6.244;2023-03-31T00:18:50;42.97;;;7.63;;
51732;SDS011;39139;53.144;6.244;2023-03-31T00:21:17;33.58;;;5.75;;
51732;SDS011;39139;53.144;6.244;2023-03-31T00:23:52;35.58;;;7.55;;
51732;SDS011;39139;53.144;6.244;2023-03-31T00:26:20;44.30;;;8.18;;
51732;SDS011;39139;53.144;6.244;2023-03-31T00:28:47;37.80;;;6.68;;
51732;SDS011;39139;53.144;6.244;2023-03-31T00:31:13;32.50;;;6.97;;
51732;SDS011;39139;53.144;6.244;2023-03-31T00:33:39;31.25;;;6.40;;
51732;SDS011;39139;53.144;6.244;2023-03-31T00:36:05;29.33;;;5.43;;
51732;SDS011;39139;53.144;6.244;2023-03-31T00:38:31;30.10;;;6.70;;
51732;SDS011;39139;53.144;6.244;2023-03-31T00:40:58;34.20;;;6.38;;
51732;SDS011;39139;53.144;6.244;2023-03-31T00:45:53;41.67;;;7.38;;
51732;SDS011;39139;53.144;6.244;2023-03-31T00:50:54;26.50;;;5.78;;
51732;SDS011;39139;53.144;6.244;2023-03-31T00:53:24;38.80;;;6.28;;
51732;SDS011;39139;53.144;6.244;2023-03-31T00:58:20;50.78;;;7.93;;
51732;SDS011;39139;53.144;6.244;2023-03-31T01:00:52;39.53;;;5.85;;
51732;SDS011;39139;53.144;6.244;2023-03-31T01:03:19;30.60;;;5.18;;
51732;SDS011;39139;53.144;6.244;2023-03-31T01:05:59;34.28;;;5.60;;
51732;SDS011;39139;53.144;6.244;2023-03-31T01:08:28;31.02;;;5.97;;
51732;SDS011;39139;53.144;6.244;2023-03-31T01:10:57;35.88;;;6.32;;
51732;SDS011;39139;53.144;6.244;2023-03-31T01:13:26;40.35;;;6.97;;
51732;SDS011;39139;53.144;6.244;2023-03-31T01:15:53;43.17;;;6.13;;
51732;SDS011;39139;53.144;6.244;2023-03-31T01:18:19;30.67;;;6.78;;
51732;SDS011;39139;53.144;6.244;2023-03-31T01:23:48;39.58;;;7.47;;
51732;SDS011;39139;53.144;6.244;2023-03-31T01:26:39;33.70;;;6.32;;
51732;SDS011;39139;53.144;6.244;2023-03-31T01:35:17;38.40;;;7.22;;
51732;SDS011;39139;53.144;6.244;2023-03-31T01:43:43;32.47;;;6.15;;
51732;SDS011;39139;53.144;6.244;2023-03-31T01:51:28;35.40;;;5.55;;
51732;SDS011;39139;53.144;6.244;2023-03-31T01:56:59;26.87;;;5.07;;
51732;SDS011;39139;53.144;6.244;2023-03-31T01:59:33;27.73;;;5.10;;
51732;SDS011;39139;53.144;6.244;2023-03-31T02:04:35;30.00;;;6.18;;
51732;SDS011;39139;53.144;6.244;2023-03-31T02:07:15;33.25;;;6.38;;
51732;SDS011;39139;53.144;6.244;2023-03-31T02:09:52;32.63;;;5.82;;
51732;SDS011;39139;53.144;6.244;2023-03-31T02:12:23;34.88;;;5.57;;
51732;SDS011;39139;53.144;6.244;2023-03-31T02:14:51;29.02;;;5.63;;
51732;SDS011;39139;53.144;6.244;2023-03-31T02:17:21;33.35;;;6.25;;
51732;SDS011;39139;53.144;6.244;2023-03-31T02:19:54;36.15;;;6.85;;
51732;SDS011;39139;53.144;6.244;2023-03-31T02:22:23;33.40;;;5.65;;
51732;SDS011;39139;53.144;6.244;2023-03-31T02:24:51;27.77;;;5.25;;
51732;SDS011;39139;53.144;6.244;2023-03-31T02:27:22;33.17;;;5.25;;
51732;SDS011;39139;53.144;6.244;2023-03-31T02:29:50;27.38;;;6.55;;
51732;SDS011;39139;53.144;6.244;2023-03-31T02:32:21;25.88;;;5.35;;
51732;SDS011;39139;53.144;6.244;2023-03-31T02:34:50;21.45;;;5.40;;
51732;SDS011;39139;53.144;6.244;2023-03-31T02:37:16;29.13;;;5.15;;
51732;SDS011;39139;53.144;6.244;2023-03-31T02:39:42;25.58;;;5.18;;
51732;SDS011;39139;53.144;6.244;2023-03-31T02:42:11;29.27;;;6.05;;
51732;SDS011;39139;53.144;6.244;2023-03-31T02:44:37;29.85;;;4.50;;
51732;SDS011;39139;53.144;6.244;2023-03-31T02:47:05;26.65;;;4.80;;
51732;SDS011;39139;53.144;6.244;2023-03-31T02:49:33;25.42;;;4.95;;
51732;SDS011;39139;53.144;6.244;2023-03-31T02:55:05;26.80;;;4.72;;
51732;SDS011;39139;53.144;6.244;2023-03-31T03:05:52;30.08;;;5.70;;
51732;SDS011;39139;53.144;6.244;2023-03-31T03:11:24;23.80;;;4.53;;
51732;SDS011;39139;53.144;6.244;2023-03-31T03:16:43;31.90;;;4.45;;
51732;SDS011;39139;53.144;6.244;2023-03-31T03:19:18;29.52;;;5.35;;
51732;SDS011;39139;53.144;6.244;2023-03-31T03:21:46;22.70;;;4.47;;
51732;SDS011;39139;53.144;6.244;2023-03-31T03:24:13;18.90;;;3.65;;
51732;SDS011;39139;53.144;6.244;2023-03-31T03:26:42;26.55;;;4.50;;
51732;SDS011;39139;53.144;6.244;2023-03-31T03:29:10;21.73;;;4.13;;
51732;SDS011;39139;53.144;6.244;2023-03-31T03:31:39;20.88;;;4.60;;
51732;SDS011;39139;53.144;6.244;2023-03-31T03:34:05;35.22;;;4.95;;
51732;SDS011;39139;53.144;6.244;2023-03-31T03:36:31;24.23;;;4.38;;
51732;SDS011;39139;53.144;6.244;2023-03-31T03:38:57;20.63;;;3.80;;
51732;SDS011;39139;53.144;6.244;2023-03-31T03:41:23;24.05;;;5.18;;
51732;SDS011;39139;53.144;6.244;2023-03-31T03:43:48;17.20;;;4.07;;
51732;SDS011;39139;53.144;6.244;2023-03-31T03:46:14;18.15;;;4.72;;
51732;SDS011;39139;53.144;6.244;2023-03-31T03:48:40;22.40;;;4.70;;
51732;SDS011;39139;53.144;6.244;2023-03-31T03:51:05;19.55;;;4.32;;
51732;SDS011;39139;53.144;6.244;2023-03-31T03:53:31;23.55;;;4.30;;
51732;SDS011;39139;53.144;6.244;2023-03-31T03:55:57;22.13;;;5.45;;
51732;SDS011;39139;53.144;6.244;2023-03-31T03:58:23;16.52;;;4.38;;
51732;SDS011;39139;53.144;6.244;2023-03-31T04:00:49;20.63;;;4.93;;
51732;SDS011;39139;53.144;6.244;2023-03-31T04:03:15;16.40;;;4.53;;
51732;SDS011;39139;53.144;6.244;2023-03-31T04:05:41;23.83;;;5.30;;
51732;SDS011;39139;53.144;6.244;2023-03-31T04:08:06;20.13;;;4.50;;
51732;SDS011;39139;53.144;6.244;2023-03-31T04:10:33;20.70;;;4.93;;
51732;SDS011;39139;53.144;6.244;2023-03-31T04:12:59;11.70;;;4.57;;
51732;SDS011;39139;53.144;6.244;2023-03-31T04:15:25;16.42;;;4.82;;
51732;SDS011;39139;53.144;6.244;2023-03-31T04:17:50;17.48;;;4.70;;
51732;SDS011;39139;53.144;6.244;2023-03-31T04:20:18;19.08;;;4.78;;
51732;SDS011;39139;53.144;6.244;2023-03-31T04:22:45;17.63;;;4.25;;
51732;SDS011;39139;53.144;6.244;2023-03-31T04:25:15;16.00;;;5.10;;
51732;SDS011;39139;53.144;6.244;2023-03-31T04:27:41;19.67;;;5.45;;
51732;SDS011;39139;53.144;6.244;2023-03-31T04:30:22;15.93;;;6.07;;
51732;SDS011;39139;53.144;6.244;2023-03-31T04:32:55;21.00;;;7.18;;
51732;SDS011;39139;53.144;6.244;2023-03-31T04:35:26;24.67;;;6.68;;
51732;SDS011;39139;53.144;6.244;2023-03-31T04:38:06;23.70;;;7.30;;
51732;SDS011;39139;53.144;6.244;2023-03-31T04:40:33;23.05;;;7.00;;
51732;SDS011;39139;53.144;6.244;2023-03-31T04:42:59;20.77;;;7.13;;
51732;SDS011;39139;53.144;6.244;2023-03-31T04:45:25;17.88;;;6.68;;
51732;SDS011;39139;53.144;6.244;2023-03-31T04:47:51;18.77;;;7.13;;
51732;SDS011;39139;53.144;6.244;2023-03-31T04:50:16;26.60;;;8.18;;
51732;SDS011;39139;53.144;6.244;2023-03-31T04:52:42;19.30;;;7.70;;
51732;SDS011;39139;53.144;6.244;2023-03-31T04:55:08;19.65;;;8.10;;
51732;SDS011;39139;53.144;6.244;2023-03-31T04:57:34;23.27;;;9.15;;
51732;SDS011;39139;53.144;6.244;2023-03-31T05:00:01;17.15;;;8.07;;
51732;SDS011;39139;53.144;6.244;2023-03-31T05:02:31;23.58;;;9.05;;
51732;SDS011;39139;53.144;6.244;2023-03-31T05:04:56;21.00;;;7.68;;
51732;SDS011;39139;53.144;6.244;2023-03-31T05:07:22;17.88;;;6.70;;
51732;SDS011;39139;53.144;6.244;2023-03-31T05:09:47;23.85;;;8.88;;
51732;SDS011;39139;53.144;6.244;2023-03-31T05:12:13;26.48;;;8.90;;
51732;SDS011;39139;53.144;6.244;2023-03-31T05:14:39;22.45;;;8.10;;
51732;SDS011;39139;53.144;6.244;2023-03-31T05:17:04;20.77;;;9.88;;
51732;SDS011;39139;53.144;6.244;2023-03-31T05:19:30;21.92;;;8.38;;
51732;SDS011;39139;53.144;6.244;2023-03-31T05:21:56;24.88;;;9.70;;
51732;SDS011;39139;53.144;6.244;2023-03-31T05:24:22;23.35;;;9.18;;
51732;SDS011;39139;53.144;6.244;2023-03-31T05:26:47;22.27;;;9.23;;
51732;SDS011;39139;53.144;6.244;2023-03-31T05:29:19;20.48;;;7.57;;
51732;SDS011;39139;53.144;6.244;2023-03-31T05:31:45;21.73;;;8.20;;
51732;SDS011;39139;53.144;6.244;2023-03-31T05:34:12;20.30;;;8.70;;
51732;SDS011;39139;53.144;6.244;2023-03-31T05:36:38;25.38;;;10.02;;
51732;SDS011;39139;53.144;6.244;2023-03-31T05:39:04;20.75;;;8.13;;
51732;SDS011;39139;53.144;6.244;2023-03-31T05:41:29;22.92;;;9.00;;
51732;SDS011;39139;53.144;6.244;2023-03-31T05:43:55;19.10;;;7.22;;
51732;SDS011;39139;53.144;6.244;2023-03-31T05:46:20;16.40;;;8.90;;
51732;SDS011;39139;53.144;6.244;2023-03-31T05:48:46;17.05;;;7.97;;
51732;SDS011;39139;53.144;6.244;2023-03-31T05:51:12;21.33;;;7.68;;
51732;SDS011;39139;53.144;6.244;2023-03-31T05:53:37;16.90;;;8.30;;
51732;SDS011;39139;53.144;6.244;2023-03-31T05:56:03;22.23;;;7.35;;
51732;SDS011;39139;53.144;6.244;2023-03-31T05:58:35;14.48;;;6.75;;
51732;SDS011;39139;53.144;6.244;2023-03-31T06:01:05;16.25;;;6.53;;
51732;SDS011;39139;53.144;6.244;2023-03-31T06:03:33;13.63;;;6.13;;
51732;SDS011;39139;53.144;6.244;2023-03-31T06:06:00;21.13;;;7.50;;
51732;SDS011;39139;53.144;6.244;2023-03-31T06:08:26;14.55;;;6.18;;
51732;SDS011;39139;53.144;6.244;2023-03-31T06:10:52;15.75;;;6.40;;
51732;SDS011;39139;53.144;6.244;2023-03-31T06:13:18;15.02;;;6.93;;
51732;SDS011;39139;53.144;6.244;2023-03-31T06:15:51;9.82;;;5.10;;
51732;SDS011;39139;53.144;6.244;2023-03-31T06:18:21;13.07;;;4.97;;
51732;SDS011;39139;53.144;6.244;2023-03-31T06:20:49;13.48;;;5.35;;
51732;SDS011;39139;53.144;6.244;2023-03-31T06:23:15;14.50;;;5.60;;
51732;SDS011;39139;53.144;6.244;2023-03-31T06:25:41;15.45;;;5.93;;
51732;SDS011;39139;53.144;6.244;2023-03-31T06:28:06;15.68;;;6.05;;
51732;SDS011;39139;53.144;6.244;2023-03-31T06:30:32;11.05;;;5.32;;
51732;SDS011;39139;53.144;6.244;2023-03-31T06:32:58;14.65;;;5.25;;
51732;SDS011;39139;53.144;6.244;2023-03-31T06:35:24;16.88;;;5.93;;
51732;SDS011;39139;53.144;6.244;2023-03-31T06:37:49;15.52;;;6.10;;
51732;SDS011;39139;53.144;6.244;2023-03-31T06:40:15;10.73;;;5.28;;
51732;SDS011;39139;53.144;6.244;2023-03-31T06:42:41;8.88;;;3.85;;
51732;SDS011;39139;53.144;6.244;2023-03-31T06:45:07;14.38;;;5.93;;
51732;SDS011;39139;53.144;6.244;2023-03-31T06:47:32;10.57;;;5.20;;
51732;SDS011;39139;53.144;6.244;2023-03-31T06:49:58;11.05;;;4.80;;
51732;SDS011;39139;53.144;6.244;2023-03-31T06:52:24;10.32;;;4.55;;
51732;SDS011;39139;53.144;6.244;2023-03-31T06:54:49;12.43;;;5.00;;
51732;SDS011;39139;53.144;6.244;2023-03-31T06:57:15;12.75;;;4.85;;
51732;SDS011;39139;53.144;6.244;2023-03-31T06:59:40;12.13;;;4.95;;
51732;SDS011;39139;53.144;6.244;2023-03-31T07:02:06;10.98;;;4.88;;
51732;SDS011;39139;53.144;6.244;2023-03-31T07:04:33;10.52;;;4.22;;
51732;SDS011;39139;53.144;6.244;2023-03-31T07:06:59;9.68;;;4.15;;
51732;SDS011;39139;53.144;6.244;2023-03-31T07:09:25;11.52;;;4.75;;
51732;SDS011;39139;53.144;6.244;2023-03-31T07:11:51;7.35;;;3.97;;
51732;SDS011;39139;53.144;6.244;2023-03-31T07:14:16;10.82;;;3.97;;
51732;SDS011;39139;53.144;6.244;2023-03-31T07:16:42;10.07;;;3.33;;
51732;SDS011;39139;53.144;6.244;2023-03-31T07:19:07;11.13;;;3.83;;
51732;SDS011;39139;53.144;6.244;2023-03-31T07:21:34;8.10;;;3.90;;
51732;SDS011;39139;53.144;6.244;2023-03-31T07:24:01;9.40;;;4.05;;
51732;SDS011;39139;53.144;6.244;2023-03-31T07:26:26;8.10;;;3.60;;
51732;SDS011;39139;53.144;6.244;2023-03-31T07:28:52;9.48;;;3.72;;
51732;SDS011;39139;53.144;6.244;2023-03-31T07:31:20;9.40;;;4.70;;
51732;SDS011;39139;53.144;6.244;2023-03-31T07:33:47;10.25;;;5.18;;
51732;SDS011;39139;53.144;6.244;2023-03-31T07:36:12;11.77;;;4.72;;
51732;SDS011;39139;53.144;6.244;2023-03-31T07:38:38;12.02;;;4.10;;
51732;SDS011;39139;53.144;6.244;2023-03-31T07:41:08;8.43;;;5.57;;
51732;SDS011;39139;53.144;6.244;2023-03-31T07:43:35;8.45;;;5.28;;
51732;SDS011;39139;53.144;6.244;2023-03-31T07:46:01;8.20;;;4.47;;
51732;SDS011;39139;53.144;6.244;2023-03-31T07:48:27;5.72;;;3.88;;
51732;SDS011;39139;53.144;6.244;2023-03-31T07:50:53;7.95;;;4.55;;
51732;SDS011;39139;53.144;6.244;2023-03-31T07:53:19;6.68;;;4.70;;
51732;SDS011;39139;53.144;6.244;2023-03-31T07:55:45;9.93;;;5.38;;
51732;SDS011;39139;53.144;6.244;2023-03-31T07:58:12;8.10;;;4.90;;
51732;SDS011;39139;53.144;6.244;2023-03-31T08:00:37;13.60;;;5.40;;
51732;SDS011;39139;53.144;6.244;2023-03-31T08:03:03;12.80;;;5.65;;
51732;SDS011;39139;53.144;6.244;2023-03-31T08:05:28;10.27;;;5.18;;
51732;SDS011;39139;53.144;6.244;2023-03-31T08:07:54;6.70;;;4.45;;
51732;SDS011;39139;53.144;6.244;2023-03-31T08:10:21;9.77;;;4.15;;
51732;SDS011;39139;53.144;6.244;2023-03-31T08:12:49;7.22;;;4.63;;
51732;SDS011;39139;53.144;6.244;2023-03-31T08:15:15;6.55;;;3.25;;
51732;SDS011;39139;53.144;6.244;2023-03-31T08:17:41;9.25;;;3.08;;
51732;SDS011;39139;53.144;6.244;2023-03-31T08:20:07;5.78;;;4.28;;
51732;SDS011;39139;53.144;6.244;2023-03-31T08:22:34;7.30;;;4.35;;
51732;SDS011;39139;53.144;6.244;2023-03-31T08:25:04;6.18;;;3.67;;
51732;SDS011;39139;53.144;6.244;2023-03-31T08:27:32;5.55;;;3.50;;
51732;SDS011;39139;53.144;6.244;2023-03-31T08:30:03;7.70;;;3.72;;
51732;SDS011;39139;53.144;6.244;2023-03-31T08:32:33;8.57;;;3.97;;
51732;SDS011;39139;53.144;6.244;2023-03-31T08:34:59;11.93;;;3.78;;
51732;SDS011;39139;53.144;6.244;2023-03-31T08:37:25;7.65;;;4.00;;
51732;SDS011;39139;53.144;6.244;2023-03-31T08:42:28;7.68;;;3.53;;
51732;SDS011;39139;53.144;6.244;2023-03-31T08:45:16;8.95;;;4.20;;
51732;SDS011;39139;53.144;6.244;2023-03-31T08:47:47;10.15;;;3.65;;
51732;SDS011;39139;53.144;6.244;2023-03-31T08:50:22;12.02;;;3.55;;
51732;SDS011;39139;53.144;6.244;2023-03-31T08:53:27;10.65;;;3.35;;
51732;SDS011;39139;53.144;6.244;2023-03-31T08:55:47;7.38;;;3.83;;
51732;SDS011;39139;53.144;6.244;2023-03-31T08:58:23;11.57;;;3.80;;
51732;SDS011;39139;53.144;6.244;2023-03-31T09:01:07;6.07;;;3.05;;
51732;SDS011;39139;53.144;6.244;2023-03-31T09:06:19;9.07;;;3.97;;
51732;SDS011;39139;53.144;6.244;2023-03-31T09:08:51;11.73;;;3.60;;
51732;SDS011;39139;53.144;6.244;2023-03-31T09:11:43;11.23;;;4.38;;
51732;SDS011;39139;53.144;6.244;2023-03-31T09:14:26;7.25;;;4.13;;
51732;SDS011;39139;53.144;6.244;2023-03-31T09:19:52;8.48;;;4.45;;
51732;SDS011;39139;53.144;6.244;2023-03-31T09:22:25;13.70;;;5.22;;
51732;SDS011;39139;53.144;6.244;2023-03-31T09:25:11;10.63;;;4.57;;
51732;SDS011;39139;53.144;6.244;2023-03-31T09:27:49;12.23;;;4.22;;
51732;SDS011;39139;53.144;6.244;2023-03-31T09:30:20;10.30;;;4.07;;
51732;SDS011;39139;53.144;6.244;2023-03-31T09:33:09;8.70;;;3.60;;
51732;SDS011;39139;53.144;6.244;2023-03-31T09:35:38;9.75;;;4.32;;
51732;SDS011;39139;53.144;6.244;2023-03-31T09:38:05;9.95;;;4.53;;
51732;SDS011;39139;53.144;6.244;2023-03-31T09:40:31;8.13;;;4.05;;
51732;SDS011;39139;53.144;6.244;2023-03-31T09:42:59;12.10;;;4.10;;
51732;SDS011;39139;53.144;6.244;2023-03-31T09:47:55;11.60;;;3.45;;
51732;SDS011;39139;53.144;6.244;2023-03-31T09:50:23;10.48;;;3.78;;
51732;SDS011;39139;53.144;6.244;2023-03-31T09:52:57;7.93;;;3.15;;
51732;SDS011;39139;53.144;6.244;2023-03-31T09:55:39;8.70;;;3.33;;
51732;SDS011;39139;53.144;6.244;2023-03-31T09:58:13;10.85;;;3.00;;
51732;SDS011;39139;53.144;6.244;2023-03-31T10:00:41;5.32;;;2.83;;
51732;SDS011;39139;53.144;6.244;2023-03-31T10:03:10;6.78;;;2.47;;
51732;SDS011;39139;53.144;6.244;2023-03-31T10:05:49;3.10;;;2.28;;
51732;SDS011;39139;53.144;6.244;2023-03-31T10:08:20;8.85;;;2.47;;
51732;SDS011;39139;53.144;6.244;2023-03-31T10:10:55;5.70;;;2.38;;
51732;SDS011;39139;53.144;6.244;2023-03-31T10:16:22;9.63;;;3.88;;
51732;SDS011;39139;53.144;6.244;2023-03-31T10:18:48;5.65;;;3.53;;
51732;SDS011;39139;53.144;6.244;2023-03-31T10:21:21;10.43;;;3.45;;
51732;SDS011;39139;53.144;6.244;2023-03-31T10:23:52;6.90;;;3.33;;
51732;SDS011;39139;53.144;6.244;2023-03-31T10:26:20;8.93;;;3.60;;
51732;SDS011;39139;53.144;6.244;2023-03-31T10:28:53;4.38;;;3.00;;
51732;SDS011;39139;53.144;6.244;2023-03-31T10:31:23;10.07;;;3.67;;
51732;SDS011;39139;53.144;6.244;2023-03-31T10:33:50;8.63;;;3.38;;
51732;SDS011;39139;53.144;6.244;2023-03-31T10:36:21;4.93;;;3.53;;
51732;SDS011;39139;53.144;6.244;2023-03-31T10:38:50;10.18;;;3.67;;
51732;SDS011;39139;53.144;6.244;2023-03-31T10:41:21;8.45;;;3.53;;
51732;SDS011;39139;53.144;6.244;2023-03-31T10:43:50;5.78;;;3.28;;
51732;SDS011;39139;53.144;6.244;2023-03-31T10:46:17;6.72;;;2.88;;
51732;SDS011;39139;53.144;6.244;2023-03-31T10:48:44;11.65;;;3.25;;
51732;SDS011;39139;53.144;6.244;2023-03-31T10:53:46;5.80;;;2.67;;
51732;SDS011;39139;53.144;6.244;2023-03-31T10:59:09;8.10;;;3.00;;
51732;SDS011;39139;53.144;6.244;2023-03-31T11:01:57;10.77;;;3.15;;
51732;SDS011;39139;53.144;6.244;2023-03-31T11:24:33;6.40;;;2.83;;
51732;SDS011;39139;53.144;6.244;2023-03-31T11:29:39;6.75;;;2.20;;
51732;SDS011;39139;53.144;6.244;2023-03-31T11:32:36;8.82;;;2.50;;
51732;SDS011;39139;53.144;6.244;2023-03-31T11:43:31;6.13;;;2.17;;
51732;SDS011;39139;53.144;6.244;2023-03-31T11:46:02;8.35;;;2.65;;
51732;SDS011;39139;53.144;6.244;2023-03-31T11:48:54;6.72;;;2.10;;
51732;SDS011;39139;53.144;6.244;2023-03-31T11:51:24;6.50;;;1.60;;
51732;SDS011;39139;53.144;6.244;2023-03-31T11:54:19;4.90;;;2.50;;
51732;SDS011;39139;53.144;6.244;2023-03-31T11:56:49;5.43;;;2.22;;
51732;SDS011;39139;53.144;6.244;2023-03-31T11:59:16;9.50;;;2.30;;
51732;SDS011;39139;53.144;6.244;2023-03-31T12:01:53;7.55;;;2.88;;
51732;SDS011;39139;53.144;6.244;2023-03-31T12:04:43;11.98;;;3.58;;
51732;SDS011;39139;53.144;6.244;2023-03-31T12:09:59;6.97;;;3.40;;
51732;SDS011;39139;53.144;6.244;2023-03-31T12:12:31;8.98;;;3.38;;
51732;SDS011;39139;53.144;6.244;2023-03-31T12:18:41;8.75;;;2.63;;
51732;SDS011;39139;53.144;6.244;2023-03-31T12:20:52;6.40;;;2.90;;
51732;SDS011;39139;53.144;6.244;2023-03-31T12:23:22;6.53;;;2.55;;
51732;SDS011;39139;53.144;6.244;2023-03-31T12:25:58;10.70;;;3.95;;
51732;SDS011;39139;53.144;6.244;2023-03-31T12:28:32;8.55;;;3.92;;
51732;SDS011;39139;53.144;6.244;2023-03-31T12:31:01;13.35;;;3.70;;
51732;SDS011;39139;53.144;6.244;2023-03-31T12:33:30;11.05;;;3.90;;
51732;SDS011;39139;53.144;6.244;2023-03-31T12:52:43;12.45;;;3.45;;
51732;SDS011;39139;53.144;6.244;2023-03-31T12:55:31;10.00;;;3.63;;
51732;SDS011;39139;53.144;6.244;2023-03-31T13:09:03;12.48;;;3.13;;
51732;SDS011;39139;53.144;6.244;2023-03-31T13:11:50;10.15;;;3.45;;
51732;SDS011;39139;53.144;6.244;2023-03-31T13:14:16;11.55;;;3.38;;
51732;SDS011;39139;53.144;6.244;2023-03-31T13:16:48;13.93;;;3.05;;
51732;SDS011;39139;53.144;6.244;2023-03-31T13:19:30;11.15;;;3.05;;
51732;SDS011;39139;53.144;6.244;2023-03-31T13:22:01;9.65;;;2.83;;
51732;SDS011;39139;53.144;6.244;2023-03-31T13:24:29;9.63;;;4.22;;
51732;SDS011;39139;53.144;6.244;2023-03-31T13:26:57;14.75;;;4.57;;
51732;SDS011;39139;53.144;6.244;2023-03-31T13:29:25;12.15;;;3.25;;
51732;SDS011;39139;53.144;6.244;2023-03-31T13:32:05;14.38;;;4.00;;
51732;SDS011;39139;53.144;6.244;2023-03-31T13:34:38;8.63;;;2.50;;
51732;SDS011;39139;53.144;6.244;2023-03-31T13:37:22;7.60;;;2.00;;
51732;SDS011;39139;53.144;6.244;2023-03-31T13:52:10;2.88;;;0.73;;
51732;SDS011;39139;53.144;6.244;2023-03-31T14:05:33;3.25;;;0.47;;
51732;SDS011;39139;53.144;6.244;2023-03-31T14:08:10;3.03;;;0.47;;
51732;SDS011;39139;53.144;6.244;2023-03-31T14:10:39;2.35;;;0.55;;
51732;SDS011;39139;53.144;6.244;2023-03-31T14:13:11;3.13;;;0.80;;
51732;SDS011;39139;53.144;6.244;2023-03-31T14:15:54;3.83;;;0.77;;
51732;SDS011;39139;53.144;6.244;2023-03-31T14:18:32;5.03;;;1.45;;
51732;SDS011;39139;53.144;6.244;2023-03-31T14:21:22;1.98;;;1.08;;
51732;SDS011;39139;53.144;6.244;2023-03-31T14:23:55;6.88;;;1.73;;
51732;SDS011;39139;53.144;6.244;2023-03-31T14:26:41;5.90;;;1.60;;
51732;SDS011;39139;53.144;6.244;2023-03-31T14:37:25;4.72;;;1.48;;
51732;SDS011;39139;53.144;6.244;2023-03-31T14:39:52;8.05;;;0.77;;
51732;SDS011;39139;53.144;6.244;2023-03-31T14:42:25;4.53;;;0.90;;
51732;SDS011;39139;53.144;6.244;2023-03-31T14:44:56;6.65;;;0.93;;
51732;SDS011;39139;53.144;6.244;2023-03-31T14:47:26;6.65;;;1.35;;
51732;SDS011;39139;53.144;6.244;2023-03-31T14:50:12;8.75;;;1.73;;
51732;SDS011;39139;53.144;6.244;2023-03-31T14:52:45;10.88;;;1.60;;
51732;SDS011;39139;53.144;6.244;2023-03-31T14:55:15;5.22;;;1.23;;
51732;SDS011;39139;53.144;6.244;2023-03-31T14:57:43;9.10;;;1.65;;
51732;SDS011;39139;53.144;6.244;2023-03-31T15:00:19;7.57;;;1.80;;
51732;SDS011;39139;53.144;6.244;2023-03-31T15:02:54;5.68;;;1.77;;
51732;SDS011;39139;53.144;6.244;2023-03-31T15:10:39;3.42;;;1.05;;
51732;SDS011;39139;53.144;6.244;2023-03-31T15:13:09;8.43;;;1.20;;
51732;SDS011;39139;53.144;6.244;2023-03-31T15:15:36;6.73;;;1.13;;
51732;SDS011;39139;53.144;6.244;2023-03-31T15:18:02;5.47;;;1.08;;
51732;SDS011;39139;53.144;6.244;2023-03-31T15:22:55;4.82;;;1.27;;
51732;SDS011;39139;53.144;6.244;2023-03-31T15:25:23;2.25;;;0.93;;
51732;SDS011;39139;53.144;6.244;2023-03-31T15:28:02;3.38;;;0.80;;
51732;SDS011;39139;53.144;6.244;2023-03-31T15:30:30;3.10;;;0.93;;
51732;SDS011;39139;53.144;6.244;2023-03-31T15:32:56;3.50;;;1.00;;
51732;SDS011;39139;53.144;6.244;2023-03-31T15:35:30;5.80;;;0.95;;
51732;SDS011;39139;53.144;6.244;2023-03-31T15:37:58;4.60;;;0.88;;
51732;SDS011;39139;53.144;6.244;2023-03-31T15:40:35;5.05;;;1.40;;
51732;SDS011;39139;53.144;6.244;2023-03-31T15:43:11;9.50;;;1.33;;
51732;SDS011;39139;53.144;6.244;2023-03-31T15:45:50;6.97;;;1.20;;
51732;SDS011;39139;53.144;6.244;2023-03-31T15:48:36;4.88;;;0.90;;
51732;SDS011;39139;53.144;6.244;2023-03-31T15:51:17;4.82;;;0.80;;
51732;SDS011;39139;53.144;6.244;2023-03-31T15:53:49;3.97;;;1.23;;
51732;SDS011;39139;53.144;6.244;2023-03-31T15:56:30;2.75;;;1.40;;
51732;SDS011;39139;53.144;6.244;2023-03-31T15:59:01;5.30;;;1.50;;
51732;SDS011;39139;53.144;6.244;2023-03-31T16:01:36;2.20;;;0.90;;
51732;SDS011;39139;53.144;6.244;2023-03-31T16:04:11;5.40;;;1.17;;
51732;SDS011;39139;53.144;6.244;2023-03-31T16:06:44;3.45;;;1.00;;
51732;SDS011;39139;53.144;6.244;2023-03-31T16:09:19;5.82;;;1.10;;
51732;SDS011;39139;53.144;6.244;2023-03-31T16:11:55;5.53;;;1.25;;
51732;SDS011;39139;53.144;6.244;2023-03-31T16:14:28;5.70;;;1.38;;
51732;SDS011;39139;53.144;6.244;2023-03-31T16:17:00;4.78;;;1.42;;
51732;SDS011;39139;53.144;6.244;2023-03-31T16:19:37;8.02;;;1.42;;
51732;SDS011;39139;53.144;6.244;2023-03-31T16:22:15;2.78;;;1.13;;
51732;SDS011;39139;53.144;6.244;2023-03-31T16:24:45;6.78;;;1.50;;
51732;SDS011;39139;53.144;6.244;2023-03-31T16:27:11;11.57;;;2.13;;
51732;SDS011;39139;53.144;6.244;2023-03-31T16:29:38;7.97;;;1.20;;
51732;SDS011;39139;53.144;6.244;2023-03-31T16:32:14;10.18;;;1.45;;
51732;SDS011;39139;53.144;6.244;2023-03-31T16:37:21;6.30;;;1.15;;
51732;SDS011;39139;53.144;6.244;2023-03-31T16:39:47;2.83;;;0.88;;
51732;SDS011;39139;53.144;6.244;2023-03-31T16:42:13;5.18;;;1.58;;
51732;SDS011;39139;53.144;6.244;2023-03-31T16:44:39;4.18;;;1.10;;
51732;SDS011;39139;53.144;6.244;2023-03-31T16:47:05;9.32;;;1.70;;
51732;SDS011;39139;53.144;6.244;2023-03-31T16:49:30;7.13;;;1.58;;
51732;SDS011;39139;53.144;6.244;2023-03-31T16:51:56;6.75;;;1.63;;
51732;SDS011;39139;53.144;6.244;2023-03-31T16:54:22;7.60;;;2.85;;
51732;SDS011;39139;53.144;6.244;2023-03-31T16:56:47;7.93;;;2.13;;
51732;SDS011;39139;53.144;6.244;2023-03-31T16:59:13;8.80;;;2.05;;
51732;SDS011;39139;53.144;6.244;2023-03-31T17:01:39;7.63;;;2.03;;
51732;SDS011;39139;53.144;6.244;2023-03-31T17:04:05;6.88;;;2.35;;
51732;SDS011;39139;53.144;6.244;2023-03-31T17:06:31;4.90;;;2.10;;
51732;SDS011;39139;53.144;6.244;2023-03-31T17:08:57;9.30;;;2.60;;
51732;SDS011;39139;53.144;6.244;2023-03-31T17:11:22;4.95;;;1.35;;
51732;SDS011;39139;53.144;6.244;2023-03-31T17:13:48;8.52;;;2.13;;
51732;SDS011;39139;53.144;6.244;2023-03-31T17:16:15;7.72;;;1.90;;
51732;SDS011;39139;53.144;6.244;2023-03-31T17:18:42;5.22;;;1.63;;
51732;SDS011;39139;53.144;6.244;2023-03-31T17:21:11;4.28;;;1.55;;
51732;SDS011;39139;53.144;6.244;2023-03-31T17:23:39;7.68;;;1.77;;
51732;SDS011;39139;53.144;6.244;2023-03-31T17:26:05;6.50;;;1.90;;
51732;SDS011;39139;53.144;6.244;2023-03-31T17:28:33;4.10;;;1.50;;
51732;SDS011;39139;53.144;6.244;2023-03-31T17:30:59;7.28;;;1.90;;
51732;SDS011;39139;53.144;6.244;2023-03-31T17:33:25;14.20;;;2.75;;
51732;SDS011;39139;53.144;6.244;2023-03-31T17:35:58;10.32;;;2.63;;
51732;SDS011;39139;53.144;6.244;2023-03-31T17:38:24;6.13;;;1.88;;
51732;SDS011;39139;53.144;6.244;2023-03-31T17:40:50;5.07;;;2.15;;
51732;SDS011;39139;53.144;6.244;2023-03-31T17:43:16;9.75;;;2.35;;
51732;SDS011;39139;53.144;6.244;2023-03-31T17:45:41;9.98;;;2.65;;
51732;SDS011;39139;53.144;6.244;2023-03-31T17:48:07;9.23;;;2.28;;
51732;SDS011;39139;53.144;6.244;2023-03-31T17:50:33;4.95;;;2.13;;
51732;SDS011;39139;53.144;6.244;2023-03-31T17:53:00;5.63;;;2.03;;